createdAt,value
2023-05-12T00:00:20.915Z,13.55
2023-05-12T00:01:20.622Z,13.53
2023-05-12T00:02:20.599Z,13.51
2023-05-12T00:03:20.661Z,13.51
2023-05-12T00:04:20.582Z,13.51
2023-05-12T00:05:20.560Z,13.51
2023-05-12T00:06:20.542Z,13.51
2023-05-12T00:07:20.528Z,13.53
2023-05-12T00:08:20.523Z,13.53
2023-05-12T00:09:20.527Z,13.54
2023-05-12T00:10:20.727Z,13.53
2023-05-12T00:11:20.487Z,13.51
2023-05-12T00:12:20.466Z,13.51
2023-05-12T00:13:20.480Z,13.50
2023-05-12T00:14:20.457Z,13.48
2023-05-12T00:15:20.448Z,13.48
2023-05-12T00:16:20.453Z,13.48
2023-05-12T00:17:20.445Z,13.47
2023-05-12T00:18:20.443Z,13.47
2023-05-12T00:19:20.404Z,13.48
2023-05-12T00:20:20.644Z,13.47
2023-05-12T00:21:20.385Z,13.47
2023-05-12T00:22:20.356Z,13.46
2023-05-12T00:23:20.353Z,13.46
2023-05-12T00:24:20.343Z,13.44
2023-05-12T00:25:20.353Z,13.44
2023-05-12T00:26:20.315Z,13.44
2023-05-12T00:27:20.314Z,13.44
2023-05-12T00:28:20.316Z,13.43
2023-05-12T00:29:20.289Z,13.43
2023-05-12T00:30:20.470Z,13.44
2023-05-12T00:31:20.339Z,13.43
2023-05-12T00:32:20.276Z,13.41
2023-05-12T00:33:20.272Z,13.41
2023-05-12T00:34:20.231Z,13.41
2023-05-12T00:35:20.216Z,13.41
2023-05-12T00:36:20.204Z,13.41
2023-05-12T00:37:20.198Z,13.41
2023-05-12T00:38:20.208Z,13.41
2023-05-12T00:39:20.176Z,13.41
2023-05-12T00:40:20.461Z,13.41
2023-05-12T00:41:20.173Z,13.38
2023-05-12T00:42:20.163Z,13.39
2023-05-12T00:43:20.144Z,13.38
2023-05-12T00:44:20.116Z,13.36
2023-05-12T00:45:20.113Z,13.38
2023-05-12T00:46:20.122Z,13.36
2023-05-12T00:47:20.101Z,13.38
2023-05-12T00:48:20.076Z,13.36
2023-05-12T00:49:20.078Z,13.36
2023-05-12T00:50:20.301Z,13.35
2023-05-12T00:51:20.044Z,13.36
2023-05-12T00:52:20.039Z,13.36
2023-05-12T00:53:20.024Z,13.36
2023-05-12T00:54:20.005Z,13.38
2023-05-12T00:55:20.006Z,13.36
2023-05-12T00:56:20.162Z,13.36
2023-05-12T00:57:19.986Z,13.35
2023-05-12T00:58:19.967Z,13.36
2023-05-12T00:59:19.964Z,13.35
2023-05-12T01:00:20.114Z,13.35
2023-05-12T01:01:19.989Z,13.36
2023-05-12T01:02:19.958Z,13.36
2023-05-12T01:03:20.085Z,13.35
2023-05-12T01:04:19.894Z,13.35
2023-05-12T01:05:19.928Z,13.35
2023-05-12T01:06:19.888Z,13.35
2023-05-12T01:07:19.872Z,13.35
2023-05-12T01:08:19.853Z,13.36
2023-05-12T01:09:19.841Z,13.35
2023-05-12T01:10:20.143Z,13.32
2023-05-12T01:11:19.833Z,13.35
2023-05-12T01:12:19.816Z,13.32
2023-05-12T01:13:19.797Z,13.35
2023-05-12T01:14:19.798Z,13.32
2023-05-12T01:15:19.785Z,13.35
2023-05-12T01:16:19.778Z,13.35
2023-05-12T01:17:19.816Z,13.36
2023-05-12T01:18:19.942Z,13.36
2023-05-12T01:19:19.773Z,13.36
2023-05-12T01:20:19.929Z,13.36
2023-05-12T01:21:19.708Z,13.36
2023-05-12T01:22:19.703Z,13.35
2023-05-12T01:23:19.698Z,13.35
2023-05-12T01:24:19.696Z,13.36
2023-05-12T01:25:19.663Z,13.35
2023-05-12T01:26:19.656Z,13.35
2023-05-12T01:27:19.647Z,13.35
2023-05-12T01:28:19.634Z,13.35
2023-05-12T01:29:19.629Z,13.35
2023-05-12T01:30:20.121Z,13.32
2023-05-12T01:31:20.986Z,13.32
2023-05-12T01:32:19.638Z,13.31
2023-05-12T01:33:19.580Z,13.31
2023-05-12T01:34:19.601Z,13.35
2023-05-12T01:35:19.558Z,13.32
2023-05-12T01:36:19.549Z,13.32
2023-05-12T01:37:19.530Z,13.32
2023-05-12T01:38:19.535Z,13.31
2023-05-12T01:39:19.515Z,13.31
2023-05-12T01:40:19.686Z,13.29
2023-05-12T01:41:19.481Z,13.29
2023-05-12T01:42:19.477Z,13.31
2023-05-12T01:43:21.508Z,13.32
2023-05-12T01:44:19.455Z,13.32
2023-05-12T01:45:19.440Z,13.31
2023-05-12T01:46:19.467Z,13.31
2023-05-12T01:47:19.415Z,13.31
2023-05-12T01:48:19.419Z,13.29
2023-05-12T01:49:19.413Z,13.29
2023-05-12T01:50:19.631Z,13.29
2023-05-12T01:51:19.374Z,13.28
2023-05-12T01:52:19.372Z,13.29
2023-05-12T01:53:19.378Z,13.29
2023-05-12T01:54:19.345Z,13.28
2023-05-12T01:55:19.330Z,13.27
2023-05-12T01:56:19.320Z,13.27
2023-05-12T01:57:19.327Z,13.27
2023-05-12T01:58:19.298Z,13.25
2023-05-12T01:59:19.300Z,13.25
2023-05-12T02:00:19.424Z,13.24
2023-05-12T02:01:19.286Z,13.22
2023-05-12T02:02:19.261Z,13.22
2023-05-12T02:03:19.320Z,13.22
2023-05-12T02:04:19.236Z,13.21
2023-05-12T02:05:19.241Z,13.24
2023-05-12T02:06:19.217Z,13.21
2023-05-12T02:07:19.193Z,13.21
2023-05-12T02:08:19.193Z,13.21
2023-05-12T02:09:19.179Z,13.22
2023-05-12T02:10:19.357Z,13.21
2023-05-12T02:11:19.167Z,13.21
2023-05-12T02:12:19.146Z,13.19
2023-05-12T02:13:19.128Z,13.19
2023-05-12T02:14:19.121Z,13.19
2023-05-12T02:15:19.115Z,13.17
2023-05-12T02:16:19.199Z,13.17
2023-05-12T02:17:19.082Z,13.14
2023-05-12T02:18:19.073Z,13.14
2023-05-12T02:19:19.065Z,13.14
2023-05-12T02:20:19.418Z,13.13
2023-05-12T02:21:19.038Z,13.13
2023-05-12T02:22:19.034Z,13.10
2023-05-12T02:23:19.019Z,13.10
2023-05-12T02:24:19.018Z,13.10
2023-05-12T02:25:19.014Z,13.10
2023-05-12T02:26:19.001Z,13.09
2023-05-12T02:27:18.973Z,13.07
2023-05-12T02:28:18.983Z,13.07
2023-05-12T02:29:18.962Z,13.06
2023-05-12T02:30:19.171Z,13.06
2023-05-12T02:31:19.002Z,13.04
2023-05-12T02:32:18.949Z,13.03
2023-05-12T02:33:18.921Z,13.03
2023-05-12T02:34:18.909Z,12.99
2023-05-12T02:35:18.890Z,12.99
2023-05-12T02:36:18.877Z,12.98
2023-05-12T02:37:18.864Z,12.96
2023-05-12T02:38:18.857Z,12.98
2023-05-12T02:39:18.856Z,12.96
2023-05-12T02:40:18.940Z,12.96
2023-05-12T02:41:18.820Z,12.98
2023-05-12T02:42:18.812Z,12.96
2023-05-12T02:43:18.809Z,12.96
2023-05-12T02:44:18.795Z,12.96
2023-05-12T02:45:18.771Z,12.96
2023-05-12T02:46:18.856Z,12.96
2023-05-12T02:47:18.753Z,12.98
2023-05-12T02:48:18.760Z,12.98
2023-05-12T02:49:18.735Z,12.98
2023-05-12T02:50:19.027Z,12.99
2023-05-12T02:51:18.712Z,12.99
2023-05-12T02:52:18.705Z,13.01
2023-05-12T02:53:18.706Z,12.99
2023-05-12T02:54:18.692Z,12.98
2023-05-12T02:55:18.666Z,12.99
2023-05-12T02:56:18.662Z,13.01
2023-05-12T02:57:18.650Z,13.01
2023-05-12T02:58:18.656Z,13.01
2023-05-12T02:59:18.629Z,13.03
2023-05-12T03:00:18.725Z,13.03
2023-05-12T03:01:18.704Z,13.04
2023-05-12T03:02:18.684Z,13.04
2023-05-12T03:03:18.674Z,13.04
2023-05-12T03:04:18.572Z,13.03
2023-05-12T03:05:18.557Z,13.06
2023-05-12T03:06:18.551Z,13.03
2023-05-12T03:07:18.553Z,13.01
2023-05-12T03:08:18.535Z,12.99
2023-05-12T03:09:18.516Z,13.03
2023-05-12T03:10:18.905Z,13.03
2023-05-12T03:11:18.501Z,13.01
2023-05-12T03:12:18.499Z,13.01
2023-05-12T03:13:18.474Z,12.99
2023-05-12T03:14:18.466Z,12.99
2023-05-12T03:15:18.463Z,12.99
2023-05-12T03:16:19.699Z,12.98
2023-05-12T03:17:18.504Z,12.96
2023-05-12T03:18:18.422Z,12.98
2023-05-12T03:19:18.404Z,12.96
2023-05-12T03:20:18.636Z,12.96
2023-05-12T03:21:18.394Z,12.96
2023-05-12T03:22:18.379Z,12.96
2023-05-12T03:23:18.427Z,12.95
2023-05-12T03:24:18.361Z,12.94
2023-05-12T03:25:18.362Z,12.91
2023-05-12T03:26:18.345Z,12.91
2023-05-12T03:27:18.331Z,12.89
2023-05-12T03:28:18.337Z,12.88
2023-05-12T03:29:18.306Z,12.89
2023-05-12T03:30:18.491Z,12.89
2023-05-12T03:31:18.290Z,12.88
2023-05-12T03:32:18.335Z,12.88
2023-05-12T03:33:18.251Z,12.85
2023-05-12T03:34:18.249Z,12.85
2023-05-12T03:35:18.254Z,12.85
2023-05-12T03:36:18.221Z,12.85
2023-05-12T03:37:18.241Z,12.84
2023-05-12T03:38:18.204Z,12.81
2023-05-12T03:39:18.217Z,12.81
2023-05-12T03:40:18.474Z,12.79
2023-05-12T03:41:18.161Z,12.77
2023-05-12T03:42:18.155Z,12.77
2023-05-12T03:43:18.138Z,12.76
2023-05-12T03:44:18.148Z,12.74
2023-05-12T03:45:18.119Z,12.73
2023-05-12T03:46:18.140Z,12.73
2023-05-12T03:47:18.156Z,12.71
2023-05-12T03:48:18.182Z,12.71
2023-05-12T03:49:18.092Z,12.71
2023-05-12T03:50:18.229Z,12.70
2023-05-12T03:51:18.052Z,12.69
2023-05-12T03:52:18.055Z,12.70
2023-05-12T03:53:18.040Z,12.69
2023-05-12T03:54:18.035Z,12.67
2023-05-12T03:55:18.012Z,12.66
2023-05-12T03:56:18.002Z,12.66
2023-05-12T03:57:17.987Z,12.66
2023-05-12T03:58:17.983Z,12.63
2023-05-12T03:59:17.969Z,12.62
2023-05-12T04:00:18.220Z,12.62
2023-05-12T04:01:17.952Z,12.63
2023-05-12T04:02:18.005Z,12.62
2023-05-12T04:03:18.104Z,12.63
2023-05-12T04:04:17.941Z,12.66
2023-05-12T04:05:17.900Z,12.62
2023-05-12T04:06:17.892Z,12.61
2023-05-12T04:07:17.891Z,12.62
2023-05-12T04:08:17.884Z,12.63
2023-05-12T04:09:17.865Z,12.66
2023-05-12T04:10:17.900Z,12.66
2023-05-12T04:11:17.832Z,12.66
2023-05-12T04:12:17.837Z,12.67
2023-05-12T04:13:17.820Z,12.69
2023-05-12T04:14:17.807Z,12.70
2023-05-12T04:15:17.793Z,12.71
2023-05-12T04:16:17.819Z,12.71
2023-05-12T04:17:17.824Z,12.71
2023-05-12T04:18:17.753Z,12.73
2023-05-12T04:19:17.747Z,12.73
2023-05-12T04:20:17.864Z,12.74
2023-05-12T04:21:17.735Z,12.76
2023-05-12T04:22:17.733Z,12.80
2023-05-12T04:23:17.716Z,12.81
2023-05-12T04:24:17.694Z,12.84
2023-05-12T04:25:17.706Z,12.81
2023-05-12T04:26:17.685Z,12.84
2023-05-12T04:27:17.659Z,12.85
2023-05-12T04:28:17.654Z,12.87
2023-05-12T04:29:17.636Z,12.87
2023-05-12T04:30:17.731Z,12.85
2023-05-12T04:31:17.668Z,12.87
2023-05-12T04:32:17.668Z,12.87
2023-05-12T04:33:17.589Z,12.87
2023-05-12T04:34:17.583Z,12.88
2023-05-12T04:35:17.578Z,12.88
2023-05-12T04:36:17.579Z,12.89
2023-05-12T04:37:17.545Z,12.88
2023-05-12T04:38:17.541Z,12.88
2023-05-12T04:39:17.527Z,12.88
2023-05-12T04:40:17.632Z,12.88
2023-05-12T04:41:17.513Z,12.89
2023-05-12T04:42:17.496Z,12.92
2023-05-12T04:44:17.483Z,12.95
2023-05-12T04:45:17.589Z,12.98
2023-05-12T04:46:17.514Z,12.96
2023-05-12T04:47:17.440Z,12.95
2023-05-12T04:48:17.427Z,12.96
2023-05-12T04:49:17.425Z,12.98
2023-05-12T04:50:17.420Z,13.01
2023-05-12T04:51:17.407Z,13.03
2023-05-12T04:52:17.401Z,13.03
2023-05-12T04:53:17.375Z,13.04
2023-05-12T04:54:17.400Z,13.06
2023-05-12T04:55:17.420Z,13.07
2023-05-12T04:56:17.346Z,13.10
2023-05-12T04:57:17.345Z,13.10
2023-05-12T04:58:17.327Z,13.10
2023-05-12T04:59:17.316Z,13.10
2023-05-12T05:00:17.310Z,13.10
2023-05-12T05:01:17.301Z,13.10
2023-05-12T05:02:17.309Z,13.10
2023-05-12T05:03:17.408Z,13.14
2023-05-12T05:04:17.280Z,13.14
2023-05-12T05:05:17.242Z,13.17
2023-05-12T05:06:17.230Z,13.16
2023-05-12T05:07:17.222Z,13.19
2023-05-12T05:08:17.220Z,13.17
2023-05-12T05:09:17.205Z,13.19
2023-05-12T05:10:17.195Z,13.22
2023-05-12T05:11:17.173Z,13.24
2023-05-12T05:12:17.168Z,13.25
2023-05-12T05:13:17.164Z,13.27
2023-05-12T05:14:17.145Z,13.25
2023-05-12T05:15:17.309Z,13.28
2023-05-12T05:16:17.165Z,13.35
2023-05-12T05:17:17.105Z,13.38
2023-05-12T05:18:17.110Z,13.36
2023-05-12T05:19:23.042Z,13.38
2023-05-12T05:20:17.219Z,13.41
2023-05-12T05:21:17.061Z,13.43
2023-05-12T05:22:17.067Z,13.46
2023-05-12T05:23:17.059Z,13.46
2023-05-12T05:24:17.038Z,13.48
2023-05-12T05:25:17.107Z,13.47
2023-05-12T05:26:17.018Z,13.50
2023-05-12T05:27:17.053Z,13.51
2023-05-12T05:28:17.004Z,13.46
2023-05-12T05:29:16.971Z,13.47
2023-05-12T05:30:16.972Z,13.53
2023-05-12T05:31:17.023Z,13.54
2023-05-12T05:32:16.953Z,13.53
2023-05-12T05:33:16.936Z,13.54
2023-05-12T05:34:16.977Z,13.61
2023-05-12T05:35:16.935Z,13.63
2023-05-12T05:36:16.900Z,13.63
2023-05-12T05:37:16.892Z,13.66
2023-05-12T05:38:16.890Z,13.68
2023-05-12T05:39:16.862Z,13.71
2023-05-12T05:40:16.861Z,13.71
2023-05-12T05:41:16.850Z,13.71
2023-05-12T05:42:16.845Z,13.71
2023-05-12T05:43:16.830Z,13.72
2023-05-12T05:44:16.825Z,13.72
2023-05-12T05:45:16.865Z,13.76
2023-05-12T05:46:16.843Z,13.79
2023-05-12T05:47:16.782Z,13.84
2023-05-12T05:48:16.796Z,13.84
2023-05-12T05:49:16.753Z,13.80
2023-05-12T05:50:16.860Z,13.80
2023-05-12T05:51:16.761Z,13.83
2023-05-12T05:52:16.720Z,13.86
2023-05-12T05:53:16.711Z,13.87
2023-05-12T05:54:16.699Z,13.91
2023-05-12T05:55:16.738Z,13.91
2023-05-12T05:56:16.685Z,13.93
2023-05-12T05:57:16.661Z,13.91
2023-05-12T05:58:16.651Z,13.93
2023-05-12T05:59:16.636Z,13.94
2023-05-12T06:00:16.651Z,13.96
2023-05-12T06:01:16.616Z,13.96
2023-05-12T06:02:16.653Z,13.98
2023-05-12T06:03:16.697Z,13.99
2023-05-12T06:04:16.640Z,14.01
2023-05-12T06:05:16.578Z,14.02
2023-05-12T06:06:16.567Z,14.05
2023-05-12T06:07:16.547Z,14.06
2023-05-12T06:08:16.552Z,14.08
2023-05-12T06:09:16.525Z,14.08
2023-05-12T06:10:16.532Z,14.09
2023-05-12T06:11:17.953Z,14.06
2023-05-12T06:12:16.498Z,14.06
2023-05-12T06:13:16.482Z,14.12
2023-05-12T06:14:16.486Z,14.16
2023-05-12T06:15:16.477Z,14.17
2023-05-12T06:16:16.511Z,14.20
2023-05-12T06:17:16.435Z,14.24
2023-05-12T06:18:16.437Z,14.24
2023-05-12T06:19:16.429Z,14.24
2023-05-12T06:20:16.425Z,14.24
2023-05-12T06:21:16.388Z,14.23
2023-05-12T06:22:16.380Z,14.31
2023-05-12T06:23:16.376Z,14.35
2023-05-12T06:24:16.370Z,14.38
2023-05-12T06:25:16.343Z,14.41
2023-05-12T06:26:16.340Z,14.42
2023-05-12T06:27:16.322Z,14.44
2023-05-12T06:28:16.327Z,14.52
2023-05-12T06:29:16.307Z,14.48
2023-05-12T06:30:16.585Z,14.49
2023-05-12T06:31:16.291Z,14.56
2023-05-12T06:32:16.393Z,14.60
2023-05-12T06:33:16.269Z,14.66
2023-05-12T06:34:16.253Z,14.75
2023-05-12T06:35:16.233Z,14.79
2023-05-12T06:36:16.234Z,14.79
2023-05-12T06:37:16.213Z,14.85
2023-05-12T06:38:16.434Z,14.90
2023-05-12T06:39:16.192Z,14.93
2023-05-12T06:40:16.202Z,14.93
2023-05-12T06:41:16.172Z,14.93
2023-05-12T06:42:16.247Z,14.97
2023-05-12T06:43:16.161Z,14.87
2023-05-12T06:44:16.143Z,14.85
2023-05-12T06:45:16.132Z,14.82
2023-05-12T06:46:16.155Z,14.82
2023-05-12T06:47:16.125Z,14.83
2023-05-12T06:48:16.092Z,14.83
2023-05-12T06:49:16.085Z,14.90
2023-05-12T06:50:16.076Z,14.87
2023-05-12T06:51:16.060Z,14.95
2023-05-12T06:52:16.067Z,14.97
2023-05-12T06:53:16.040Z,15.01
2023-05-12T06:54:16.037Z,15.04
2023-05-12T06:55:16.018Z,15.03
2023-05-12T06:56:16.029Z,15.01
2023-05-12T06:57:16.008Z,15.07
2023-05-12T06:58:15.998Z,15.15
2023-05-12T06:59:15.977Z,15.19
2023-05-12T07:00:15.965Z,15.35
2023-05-12T07:01:15.993Z,15.33
2023-05-12T07:02:15.958Z,15.38
2023-05-12T07:03:16.055Z,15.37
2023-05-12T07:04:15.934Z,15.38
2023-05-12T07:05:15.924Z,15.46
2023-05-12T07:06:15.968Z,15.52
2023-05-12T07:07:15.909Z,15.55
2023-05-12T07:08:15.876Z,15.58
2023-05-12T07:09:15.870Z,15.66
2023-05-12T07:10:15.868Z,15.78
2023-05-12T07:11:15.860Z,15.80
2023-05-12T07:12:15.870Z,15.81
2023-05-12T07:13:15.835Z,15.85
2023-05-12T07:14:15.852Z,15.86
2023-05-12T07:15:15.827Z,15.88
2023-05-12T07:16:15.888Z,15.80
2023-05-12T07:17:15.779Z,15.81
2023-05-12T07:18:15.761Z,15.91
2023-05-12T07:19:15.766Z,15.95
2023-05-12T07:20:15.758Z,15.99
2023-05-12T07:21:15.727Z,16.07
2023-05-12T07:22:15.721Z,16.23
2023-05-12T07:24:15.704Z,16.30
2023-05-12T07:25:15.702Z,16.34
2023-05-12T07:26:15.673Z,16.42
2023-05-12T07:27:15.673Z,16.48
2023-05-12T07:28:15.657Z,16.59
2023-05-12T07:29:15.673Z,16.70
2023-05-12T07:30:15.632Z,16.63
2023-05-12T07:31:17.002Z,16.55
2023-05-12T07:32:15.607Z,16.47
2023-05-12T07:33:15.616Z,16.33
2023-05-12T07:34:15.600Z,16.34
2023-05-12T07:35:15.581Z,16.44
2023-05-12T07:36:15.558Z,16.51
2023-05-12T07:37:15.556Z,16.63
2023-05-12T07:38:15.554Z,16.57
2023-05-12T07:39:15.535Z,16.51
2023-05-12T07:40:15.523Z,16.52
2023-05-12T07:41:15.528Z,16.50
2023-05-12T07:42:15.499Z,16.48
2023-05-12T07:43:15.504Z,16.37
2023-05-12T07:44:15.480Z,16.22
2023-05-12T07:45:15.476Z,16.26
2023-05-12T07:46:15.461Z,16.27
2023-05-12T07:47:15.476Z,16.33
2023-05-12T07:48:15.572Z,16.26
2023-05-12T07:49:15.423Z,16.25
2023-05-12T07:50:15.415Z,16.33
2023-05-12T07:51:15.407Z,16.30
2023-05-12T07:52:15.395Z,16.27
2023-05-12T07:53:15.382Z,16.30
2023-05-12T07:54:15.363Z,16.37
2023-05-12T07:55:15.385Z,16.44
2023-05-12T07:56:15.349Z,16.42
2023-05-12T07:57:15.345Z,16.37
2023-05-12T07:58:15.324Z,16.47
2023-05-12T07:59:15.313Z,16.54
2023-05-12T08:00:15.299Z,16.55
2023-05-12T08:01:15.333Z,16.52
2023-05-12T08:02:15.332Z,16.47
2023-05-12T08:03:15.295Z,16.42
2023-05-12T08:04:15.334Z,16.54
2023-05-12T08:05:15.293Z,16.50
2023-05-12T08:06:15.242Z,16.55
2023-05-12T08:07:15.233Z,16.59
2023-05-12T08:08:15.210Z,16.60
2023-05-12T08:09:15.208Z,16.63
2023-05-12T08:10:15.208Z,16.65
2023-05-12T08:11:15.203Z,16.59
2023-05-12T08:12:15.188Z,16.62
2023-05-12T08:13:15.161Z,16.66
2023-05-12T08:14:15.143Z,16.66
2023-05-12T08:15:15.244Z,16.72
2023-05-12T08:16:15.143Z,16.73
2023-05-12T08:17:15.165Z,16.78
2023-05-12T08:18:15.130Z,16.80
2023-05-12T08:19:15.154Z,16.77
2023-05-12T08:20:15.083Z,16.81
2023-05-12T08:21:15.081Z,16.90
2023-05-12T08:22:15.072Z,17.00
2023-05-12T08:23:15.045Z,17.12
2023-05-12T08:24:15.025Z,16.95
2023-05-12T08:25:15.074Z,16.88
2023-05-12T08:26:15.017Z,16.90
2023-05-12T08:27:15.051Z,16.99
2023-05-12T08:28:15.044Z,17.00
2023-05-12T08:29:14.979Z,17.02
2023-05-12T08:30:14.973Z,17.10
2023-05-12T08:31:14.994Z,17.20
2023-05-12T08:32:14.954Z,17.21
2023-05-12T08:33:14.936Z,17.28
2023-05-12T08:34:14.939Z,17.22
2023-05-12T08:35:14.920Z,17.20
2023-05-12T08:36:14.897Z,17.20
2023-05-12T08:37:14.891Z,17.27
2023-05-12T08:38:14.882Z,17.27
2023-05-12T08:39:14.871Z,17.27
2023-05-12T08:40:14.862Z,17.42
2023-05-12T08:41:14.841Z,17.49
2023-05-12T08:42:14.834Z,17.58
2023-05-12T08:43:14.828Z,17.62
2023-05-12T08:44:14.830Z,17.55
2023-05-12T08:45:14.809Z,17.49
2023-05-12T08:46:14.815Z,17.45
2023-05-12T08:47:14.777Z,17.47
2023-05-12T08:48:14.799Z,17.46
2023-05-12T08:49:14.751Z,17.47
2023-05-12T08:50:14.762Z,17.43
2023-05-12T08:51:14.734Z,17.45
2023-05-12T08:52:14.722Z,17.43
2023-05-12T08:53:14.721Z,17.42
2023-05-12T08:54:14.709Z,17.39
2023-05-12T08:55:14.692Z,17.47
2023-05-12T08:57:14.677Z,17.63
2023-05-12T08:58:14.667Z,17.65
2023-05-12T08:59:14.642Z,17.58
2023-05-12T09:00:14.638Z,17.66
2023-05-12T09:01:15.037Z,17.73
2023-05-12T09:02:14.660Z,17.86
2023-05-12T09:03:14.655Z,18.04
2023-05-12T09:04:14.635Z,18.10
2023-05-12T09:05:14.589Z,18.07
2023-05-12T09:06:14.589Z,18.02
2023-05-12T09:07:14.573Z,18.04
2023-05-12T09:08:14.544Z,17.84
2023-05-12T09:09:14.531Z,17.96
2023-05-12T09:10:25.895Z,18.14
2023-05-12T09:11:14.519Z,18.21
2023-05-12T09:12:15.080Z,18.20
2023-05-12T09:13:14.489Z,18.32
2023-05-12T09:14:14.480Z,18.35
2023-05-12T09:15:14.467Z,18.26
2023-05-12T09:16:14.496Z,18.29
2023-05-12T09:17:14.450Z,18.21
2023-05-12T09:18:14.458Z,18.25
2023-05-12T09:19:14.598Z,18.31
2023-05-12T09:20:27.797Z,18.38
2023-05-12T09:21:14.406Z,18.51
2023-05-12T09:22:14.403Z,18.57
2023-05-12T09:23:14.398Z,18.59
2023-05-12T09:24:14.380Z,18.54
2023-05-12T09:25:14.795Z,18.56
2023-05-12T09:26:14.361Z,18.71
2023-05-12T09:27:14.362Z,18.84
2023-05-12T09:28:14.358Z,18.99
2023-05-12T09:29:24.013Z,18.84
2023-05-12T09:30:14.329Z,18.84
2023-05-12T09:31:14.788Z,18.96
2023-05-12T09:32:14.294Z,18.94
2023-05-12T09:33:14.332Z,19.07
2023-05-12T09:34:14.260Z,19.01
2023-05-12T09:35:14.268Z,19.13
2023-05-12T09:36:14.242Z,19.32
2023-05-12T09:37:15.329Z,19.53
2023-05-12T09:38:14.237Z,19.45
2023-05-12T09:39:14.214Z,19.27
2023-05-12T09:40:14.217Z,19.16
2023-05-12T09:41:14.179Z,19.01
2023-05-12T09:42:14.201Z,18.69
2023-05-12T09:43:15.549Z,18.50
2023-05-12T09:44:14.163Z,18.76
2023-05-12T09:45:14.138Z,18.99
2023-05-12T09:46:14.163Z,19.17
2023-05-12T09:47:14.110Z,19.28
2023-05-12T09:48:14.420Z,19.28
2023-05-12T09:49:14.105Z,19.39
2023-05-12T09:50:14.100Z,19.21
2023-05-12T09:51:14.070Z,19.15
2023-05-12T09:52:14.069Z,19.20
2023-05-12T09:53:14.045Z,19.27
2023-05-12T09:54:14.049Z,19.21
2023-05-12T09:55:14.044Z,19.35
2023-05-12T09:56:14.017Z,19.34
2023-05-12T09:57:14.003Z,19.27
2023-05-12T09:58:14.004Z,19.45
2023-05-12T09:59:13.991Z,19.57
2023-05-12T10:00:31.286Z,19.68
2023-05-12T10:01:22.732Z,19.34
2023-05-12T10:02:13.969Z,19.32
2023-05-12T10:03:13.973Z,19.25
2023-05-12T10:04:13.933Z,19.20
2023-05-12T10:05:13.972Z,19.27
2023-05-12T10:06:13.912Z,19.30
2023-05-12T10:07:13.888Z,19.38
2023-05-12T10:08:13.893Z,19.31
2023-05-12T10:09:13.873Z,19.35
2023-05-12T10:10:13.855Z,19.32
2023-05-12T10:11:13.844Z,19.21
2023-05-12T10:12:13.841Z,19.23
2023-05-12T10:13:13.834Z,19.25
2023-05-12T10:14:13.832Z,19.17
2023-05-12T10:15:13.820Z,19.17
2023-05-12T10:16:13.821Z,19.07
2023-05-12T10:17:13.841Z,19.23
2023-05-12T10:18:14.432Z,19.28
2023-05-12T10:19:13.762Z,19.39
2023-05-12T10:20:13.743Z,19.43
2023-05-12T10:21:13.742Z,19.42
2023-05-12T10:22:13.734Z,19.34
2023-05-12T10:23:13.711Z,19.45
2023-05-12T10:24:13.692Z,19.50
2023-05-12T10:25:13.689Z,19.61
2023-05-12T10:26:13.697Z,19.68
2023-05-12T10:27:13.700Z,19.75
2023-05-12T10:28:13.657Z,19.82
2023-05-12T10:29:13.651Z,19.90
2023-05-12T10:30:13.632Z,20.00
2023-05-12T10:31:13.666Z,20.12
2023-05-12T10:32:13.606Z,20.16
2023-05-12T10:33:13.602Z,20.04
2023-05-12T10:34:13.587Z,20.04
2023-05-12T10:35:13.583Z,20.10
2023-05-12T10:36:13.574Z,20.00
2023-05-12T10:37:13.563Z,19.95
2023-05-12T10:38:13.557Z,19.87
2023-05-12T10:39:13.539Z,20.02
2023-05-12T10:40:13.529Z,20.10
2023-05-12T10:41:13.526Z,20.16
2023-05-12T10:42:13.498Z,20.12
2023-05-12T10:43:13.496Z,20.05
2023-05-12T10:44:13.617Z,20.05
2023-05-12T10:45:13.480Z,20.10
2023-05-12T10:46:13.475Z,20.17
2023-05-12T10:47:13.453Z,20.07
2023-05-12T10:48:13.482Z,20.05
2023-05-12T10:49:13.441Z,19.97
2023-05-12T10:50:13.429Z,19.97
2023-05-12T10:51:13.402Z,19.94
2023-05-12T10:52:13.406Z,19.87
2023-05-12T10:53:13.380Z,19.78
2023-05-12T10:54:13.373Z,19.82
2023-05-12T10:55:13.395Z,19.87
2023-05-12T10:56:13.616Z,19.89
2023-05-12T10:57:16.802Z,19.95
2023-05-12T10:58:13.563Z,20.10
2023-05-12T10:59:14.070Z,20.15
2023-05-12T11:00:13.729Z,20.15
2023-05-12T11:01:13.901Z,20.13
2023-05-12T11:02:14.054Z,20.15
2023-05-12T11:03:14.356Z,20.01
2023-05-12T11:04:13.432Z,20.01
2023-05-12T11:05:13.698Z,20.02
2023-05-12T11:06:13.934Z,20.08
2023-05-12T11:07:14.226Z,20.16
2023-05-12T11:08:14.254Z,20.25
2023-05-12T11:09:13.737Z,20.27
2023-05-12T11:10:13.469Z,20.27
2023-05-12T11:11:13.721Z,20.27
2023-05-12T11:12:13.168Z,20.34
2023-05-12T11:13:13.168Z,20.42
2023-05-12T11:14:13.157Z,20.42
2023-05-12T11:15:13.148Z,20.53
2023-05-12T11:16:13.210Z,20.56
2023-05-12T11:17:13.147Z,20.53
2023-05-12T11:18:13.180Z,20.51
2023-05-12T11:19:13.288Z,20.53
2023-05-12T11:20:13.074Z,20.54
2023-05-12T11:21:13.068Z,20.56
2023-05-12T11:22:13.064Z,20.57
2023-05-12T11:23:13.047Z,20.66
2023-05-12T11:24:15.761Z,20.81
2023-05-12T11:25:13.079Z,20.82
2023-05-12T11:26:13.026Z,20.88
2023-05-12T11:27:13.019Z,20.87
2023-05-12T11:28:12.981Z,20.83
2023-05-12T11:29:12.982Z,20.88
2023-05-12T11:30:12.989Z,20.93
2023-05-12T11:31:12.984Z,21.00
2023-05-12T11:32:12.952Z,20.98
2023-05-12T11:33:12.971Z,21.01
2023-05-12T11:34:13.624Z,21.03
2023-05-12T11:35:12.918Z,21.00
2023-05-12T11:36:12.910Z,21.03
2023-05-12T11:37:12.894Z,21.03
2023-05-12T11:38:12.880Z,20.98
2023-05-12T11:39:12.872Z,20.97
2023-05-12T11:40:12.891Z,20.93
2023-05-12T11:41:12.860Z,20.97
2023-05-12T11:42:14.267Z,20.98
2023-05-12T11:43:12.831Z,21.03
2023-05-12T11:44:12.819Z,21.08
2023-05-12T11:45:12.819Z,21.12
2023-05-12T11:46:12.806Z,21.24
2023-05-12T11:47:12.827Z,21.27
2023-05-12T11:48:12.898Z,21.28
2023-05-12T11:49:12.769Z,21.24
2023-05-12T11:50:12.849Z,21.28
2023-05-12T11:51:12.741Z,21.48
2023-05-12T11:52:12.720Z,21.51
2023-05-12T11:53:12.727Z,21.46
2023-05-12T11:54:12.702Z,21.43
2023-05-12T11:55:12.712Z,21.48
2023-05-12T11:56:12.680Z,21.43
2023-05-12T11:57:12.675Z,21.38
2023-05-12T11:58:12.673Z,21.48
2023-05-12T11:59:12.667Z,21.52
2023-05-12T12:00:12.737Z,21.52
2023-05-12T12:01:12.671Z,21.42
2023-05-12T12:02:12.712Z,21.31
2023-05-12T12:03:12.764Z,21.19
2023-05-12T12:04:12.650Z,21.21
2023-05-12T12:05:12.586Z,21.26
2023-05-12T12:06:12.581Z,21.33
2023-05-12T12:07:12.565Z,21.38
2023-05-12T12:08:12.561Z,21.45
2023-05-12T12:09:12.567Z,21.45
2023-05-12T12:10:12.580Z,21.48
2023-05-12T12:11:12.540Z,21.52
2023-05-12T12:12:12.517Z,21.53
2023-05-12T12:13:12.513Z,21.55
2023-05-12T12:14:12.515Z,21.66
2023-05-12T12:15:12.480Z,21.70
2023-05-12T12:16:14.855Z,21.70
2023-05-12T12:17:12.460Z,21.74
2023-05-12T12:18:12.521Z,21.86
2023-05-12T12:19:12.516Z,21.90
2023-05-12T12:20:12.482Z,21.96
2023-05-12T12:21:12.418Z,21.94
2023-05-12T12:22:12.400Z,22.02
2023-05-12T12:23:12.410Z,21.99
2023-05-12T12:24:12.390Z,21.90
2023-05-12T12:25:12.372Z,21.82
2023-05-12T12:26:12.378Z,21.71
2023-05-12T12:27:12.364Z,21.68
2023-05-12T12:28:12.364Z,21.75
2023-05-12T12:29:12.350Z,21.86
2023-05-12T12:30:12.407Z,22.04
2023-05-12T12:31:12.374Z,22.19
2023-05-12T12:32:12.307Z,22.23
2023-05-12T12:33:12.364Z,22.31
2023-05-12T12:34:12.278Z,22.38
2023-05-12T12:35:12.267Z,22.39
2023-05-12T12:36:12.251Z,22.31
2023-05-12T12:37:12.257Z,22.31
2023-05-12T12:38:12.229Z,22.38
2023-05-12T12:39:12.220Z,22.44
2023-05-12T12:40:12.216Z,22.48
2023-05-12T12:41:12.227Z,22.51
2023-05-12T12:42:12.198Z,22.52
2023-05-12T12:43:12.175Z,22.24
2023-05-12T12:44:12.166Z,22.12
2023-05-12T12:45:12.155Z,21.99
2023-05-12T12:46:12.137Z,21.89
2023-05-12T12:47:12.269Z,21.79
2023-05-12T12:48:12.158Z,21.74
2023-05-12T12:49:12.113Z,21.66
2023-05-12T12:50:12.112Z,21.70
2023-05-12T12:51:12.113Z,21.81
2023-05-12T12:52:12.086Z,21.83
2023-05-12T12:53:12.065Z,21.89
2023-05-12T12:54:12.052Z,21.82
2023-05-12T12:55:12.034Z,21.82